Purmela, Texas
Current Conditions -  °F | °C
As of 4:15 PM on Friday 24 Oct 2014 (Local Time) from KGOP Reporting Station
Few Clouds Few Clouds  
Wind Chill: 84°   Ceiling: Unl
Heat Index: 84°   Visibility: 10mi
Dew Point: 59°   Wind: 6mph
Humidity: 42%   Direction: 180°S
Pressure: 30.11"   Gusts: NA
Location:  31.48°N, 97.96°W
Report Text: KGOP 242115Z AUTO 18005KT 10SM FEW050 29/15 A3011 RMK AO2
Loading
Personal Weather Stations






























Interactive Weather Map
Tropical Storm Tracking
New forecast layout! Learn more

10-Day Weather Forecast

Advertisements
Track Severe Weather on mobile